Time;durP1;ratioP1;P1;durP2;ratioP2;P2;SDS_P1;SDS_P2;PMS_P1;PMS_P2;Temp;Humidity;BMP_temperature;BMP_pressure;BME280_temperature;BME280_humidity;BME280_pressure;Samples;Min_cycle;Max_cycle;Signal;HPM_P1;HPM_P2
2023/05/23 00:01:02;;;;;;;15.93;12.25;;;15.80;99.90;;;;;;5053226;28;20033;-60
2023/05/23 00:03:30;;;;;;;14.20;11.90;;;15.90;99.90;;;;;;5049643;28;20040;-59
2023/05/23 00:05:55;;;;;;;16.45;11.88;;;15.70;99.90;;;;;;5050011;28;20033;-59
2023/05/23 00:08:21;;;;;;;16.98;12.65;;;15.60;99.90;;;;;;5049813;28;20060;-59
2023/05/23 00:10:47;;;;;;;15.77;12.80;;;15.70;99.90;;;;;;5052683;28;20029;-60
2023/05/23 00:13:13;;;;;;;15.13;10.05;;;15.80;99.90;;;;;;5056366;28;20248;-59
2023/05/23 00:15:43;;;;;;;11.05;7.97;;;15.90;99.90;;;;;;5051143;28;20029;-59
2023/05/23 00:18:12;;;;;;;9.70;7.55;;;15.80;99.90;;;;;;5050703;28;20035;-60
2023/05/23 00:20:39;;;;;;;9.00;6.50;;;15.50;99.90;;;;;;5056322;28;20040;-59
2023/05/23 00:23:06;;;;;;;9.45;5.72;;;15.40;99.90;;;;;;5056231;28;20032;-59
2023/05/23 00:25:35;;;;;;;6.95;5.82;;;15.30;99.90;;;;;;5055489;28;20041;-60
2023/05/23 00:28:01;;;;;;;6.40;5.13;;;15.40;99.90;;;;;;5056722;28;20063;-59
2023/05/23 00:30:28;;;;;;;7.30;4.90;;;15.40;99.90;;;;;;5055621;28;20401;-59
2023/05/23 00:32:54;;;;;;;6.43;4.80;;;15.40;99.90;;;;;;5056492;28;20122;-59
2023/05/23 00:35:20;;;;;;;6.40;4.93;;;15.40;99.90;;;;;;5048344;28;20067;-61
2023/05/23 00:37:50;;;;;;;6.15;4.95;;;15.50;99.90;;;;;;5043529;28;20195;-59
2023/05/23 00:40:20;;;;;;;6.13;4.57;;;15.40;99.90;;;;;;5046348;28;20044;-59
2023/05/23 00:42:46;;;;;;;5.88;4.97;;;15.30;99.90;;;;;;5051473;28;20115;-60
2023/05/23 00:45:12;;;;;;;6.70;5.03;;;15.40;99.90;;;;;;5048524;28;20037;-59
2023/05/23 00:47:40;;;;;;;7.72;5.22;;;15.40;99.90;;;;;;5056262;28;20061;-59
2023/05/23 00:50:11;;;;;;;7.55;5.10;;;15.40;99.90;;;;;;5057631;28;20079;-59
2023/05/23 00:52:38;;;;;;;8.45;5.00;;;15.50;99.90;;;;;;5050428;28;20060;-59
2023/05/23 00:55:04;;;;;;;7.70;5.28;;;15.40;99.90;;;;;;5044900;28;20422;-59
2023/05/23 00:57:33;;;;;;;6.50;5.15;;;15.40;99.90;;;;;;5053636;28;20053;-59
2023/05/23 00:59:59;;;;;;;8.18;6.15;;;15.40;99.90;;;;;;5051431;28;20036;-59
2023/05/23 01:02:26;;;;;;;9.93;5.97;;;15.50;99.90;;;;;;5050714;28;20028;-60
2023/05/23 01:04:53;;;;;;;7.30;5.80;;;15.50;99.90;;;;;;5047737;28;20033;-59
2023/05/23 01:07:20;;;;;;;11.57;6.47;;;15.40;99.90;;;;;;5050448;28;20033;-59
2023/05/23 01:09:46;;;;;;;8.30;6.97;;;15.40;99.90;;;;;;5048340;28;20037;-59
2023/05/23 01:12:33;;;;;;;10.50;6.80;;;15.40;99.90;;;;;;5050963;28;20060;-59
2023/05/23 01:15:11;;;;;;;7.65;6.03;;;15.30;99.90;;;;;;5049738;28;20456;-60
2023/05/23 01:18:07;;;;;;;10.00;6.30;;;15.30;99.90;;;;;;5045150;28;20040;-59
2023/05/23 01:20:51;;;;;;;9.23;6.25;;;15.40;99.90;;;;;;5044345;28;20051;-59
2023/05/23 01:23:42;;;;;;;7.22;5.72;;;15.40;99.90;;;;;;5051568;28;20124;-59
2023/05/23 01:26:55;;;;;;;6.53;5.55;;;15.40;99.90;;;;;;5051123;28;20068;-59
2023/05/23 01:29:28;;;;;;;7.53;6.13;;;15.30;99.90;;;;;;5047589;28;20033;-59
2023/05/23 01:31:56;;;;;;;10.00;5.93;;;15.50;99.90;;;;;;5045229;28;20514;-59
2023/05/23 01:34:22;;;;;;;8.07;6.45;;;15.40;99.90;;;;;;5049153;28;20128;-59
2023/05/23 01:36:52;;;;;;;7.45;6.05;;;15.50;99.90;;;;;;5056585;28;20385;-60
2023/05/23 01:39:18;;;;;;;8.57;5.75;;;15.60;99.90;;;;;;5046229;28;20040;-59
2023/05/23 01:41:44;;;;;;;8.23;6.10;;;15.60;86.30;;;;;;5050605;28;20377;-59
2023/05/23 01:44:09;;;;;;;10.05;5.93;;;15.50;99.90;;;;;;5052623;28;20035;-59
2023/05/23 01:46:38;;;;;;;6.30;5.40;;;15.50;99.90;;;;;;5049960;28;20529;-59
2023/05/23 01:49:06;;;;;;;7.90;6.10;;;15.50;99.90;;;;;;5047805;28;20060;-59
2023/05/23 01:51:33;;;;;;;10.43;5.65;;;15.40;99.90;;;;;;5051389;28;20036;-60
2023/05/23 01:53:59;;;;;;;10.38;6.20;;;15.50;99.90;;;;;;5049261;28;20029;-59
2023/05/23 01:56:26;;;;;;;9.50;6.85;;;15.50;99.90;;;;;;5041988;28;20625;-60
2023/05/23 01:58:53;;;;;;;9.20;6.47;;;15.50;99.90;;;;;;5051475;28;20488;-60
2023/05/23 02:01:18;;;;;;;10.07;7.43;;;15.60;99.90;;;;;;5047730;28;20472;-59
2023/05/23 02:03:44;;;;;;;11.88;6.97;;;15.70;99.90;;;;;;5052696;28;20041;-59
2023/05/23 02:06:10;;;;;;;8.35;7.03;;;15.60;99.90;;;;;;5048510;28;20458;-59
2023/05/23 02:08:35;;;;;;;10.90;6.90;;;15.60;99.90;;;;;;5043416;28;20040;-59
2023/05/23 02:11:01;;;;;;;9.88;6.90;;;15.60;99.90;;;;;;5045953;28;22243;-59
2023/05/23 02:13:26;;;;;;;10.95;7.32;;;15.60;99.90;;;;;;5048042;28;20060;-60
2023/05/23 02:15:52;;;;;;;9.35;7.38;;;15.70;99.90;;;;;;5051672;28;20037;-60
2023/05/23 02:18:18;;;;;;;11.50;7.78;;;15.50;99.90;;;;;;5046403;28;20064;-59
2023/05/23 02:20:43;;;;;;;12.80;7.90;;;15.50;99.90;;;;;;5048634;28;20123;-59
2023/05/23 02:23:09;;;;;;;8.52;7.15;;;15.40;99.90;;;;;;5044149;28;20855;-60
2023/05/23 02:25:34;;;;;;;12.68;7.40;;;15.50;99.90;;;;;;5047034;28;20064;-59
2023/05/23 02:28:00;;;;;;;12.15;8.43;;;15.40;99.90;;;;;;5049358;28;20029;-59
2023/05/23 02:30:25;;;;;;;12.95;8.30;;;15.40;99.90;;;;;;5053004;28;20056;-60
2023/05/23 02:32:52;;;;;;;11.75;7.82;;;15.50;99.90;;;;;;5049942;28;20504;-59
2023/05/23 02:35:17;;;;;;;13.90;8.25;;;15.40;99.90;;;;;;5051394;28;20448;-59
2023/05/23 02:37:43;;;;;;;13.23;8.68;;;15.30;99.90;;;;;;5051736;28;20090;-59
2023/05/23 02:40:09;;;;;;;14.52;9.05;;;15.20;99.90;;;;;;5049761;28;20388;-59
2023/05/23 02:42:35;;;;;;;11.85;8.55;;;15.30;99.90;;;;;;5053126;28;20040;-59
2023/05/23 02:45:00;;;;;;;10.27;8.65;;;15.30;99.90;;;;;;5056176;28;20419;-59
2023/05/23 02:47:26;;;;;;;15.90;9.35;;;15.30;99.90;;;;;;5061082;28;20052;-60
2023/05/23 02:49:52;;;;;;;16.45;8.88;;;15.30;99.90;;;;;;5054415;28;20389;-60
2023/05/23 02:52:17;;;;;;;16.08;9.07;;;15.50;99.90;;;;;;5055986;28;20411;-60
2023/05/23 02:54:43;;;;;;;15.02;10.13;;;15.20;99.90;;;;;;5060521;28;20729;-59
2023/05/23 02:57:09;;;;;;;12.73;8.73;;;15.30;99.90;;;;;;5057245;28;20036;-60
2023/05/23 02:59:35;;;;;;;14.18;7.80;;;15.10;99.90;;;;;;5058444;28;20041;-59
2023/05/23 03:02:00;;;;;;;13.88;8.63;;;15.10;99.90;;;;;;5058223;28;20383;-59
2023/05/23 03:04:26;;;;;;;12.57;7.82;;;15.00;99.90;;;;;;5055523;28;20424;-59
2023/05/23 03:06:53;;;;;;;12.07;7.70;;;15.00;99.90;;;;;;5055345;28;20036;-59
2023/05/23 03:09:19;;;;;;;13.85;8.02;;;15.00;99.90;;;;;;5056890;28;20492;-60
2023/05/23 03:11:44;;;;;;;14.57;7.70;;;15.00;99.90;;;;;;5062020;28;20040;-59
2023/05/23 03:14:10;;;;;;;12.30;7.60;;;15.00;99.90;;;;;;5050104;28;20033;-59
2023/05/23 03:16:36;;;;;;;11.07;7.40;;;15.10;99.90;;;;;;5050507;28;20045;-59
2023/05/23 03:19:01;;;;;;;12.80;8.00;;;15.00;99.90;;;;;;5048735;28;20423;-59
2023/05/23 03:21:27;;;;;;;11.10;7.03;;;15.00;99.90;;;;;;5051840;28;20036;-59
2023/05/23 03:23:52;;;;;;;13.02;7.95;;;14.90;99.90;;;;;;5048696;28;21054;-59
2023/05/23 03:26:18;;;;;;;11.27;7.38;;;14.90;99.90;;;;;;5047426;28;20536;-59
2023/05/23 03:28:44;;;;;;;12.85;7.80;;;14.90;99.90;;;;;;5059436;28;20161;-60
2023/05/23 03:31:09;;;;;;;10.75;7.15;;;15.10;99.90;;;;;;5054797;28;20049;-59
2023/05/23 03:33:35;;;;;;;13.93;7.57;;;15.10;99.90;;;;;;5048888;28;21602;-59
2023/05/23 03:36:01;;;;;;;13.70;7.35;;;15.10;99.90;;;;;;5060053;28;20037;-59
2023/05/23 03:38:26;;;;;;;15.40;8.32;;;15.20;99.90;;;;;;5053113;28;20045;-60
2023/05/23 03:40:52;;;;;;;10.32;7.55;;;15.20;99.90;;;;;;5051314;28;20021;-59
2023/05/23 03:43:18;;;;;;;15.57;8.55;;;15.20;99.90;;;;;;5052955;28;20234;-59
2023/05/23 03:45:43;;;;;;;14.68;8.70;;;15.00;99.90;;;;;;5059791;28;20060;-59
2023/05/23 03:48:10;;;;;;;13.73;8.50;;;15.00;99.90;;;;;;5052112;28;20114;-59
2023/05/23 03:50:35;;;;;;;11.60;7.65;;;14.90;99.90;;;;;;5056030;28;20060;-59
2023/05/23 03:53:01;;;;;;;15.98;9.07;;;14.90;99.90;;;;;;5047093;28;20049;-59
2023/05/23 03:55:26;;;;;;;16.00;8.07;;;14.80;99.90;;;;;;5050494;28;20040;-59
2023/05/23 03:57:52;;;;;;;15.20;8.60;;;14.70;99.90;;;;;;5052459;28;20127;-59
2023/05/23 04:00:18;;;;;;;12.55;8.20;;;14.80;99.90;;;;;;5053886;28;20032;-59
2023/05/23 04:02:45;;;;;;;12.57;8.05;;;14.80;99.90;;;;;;5049021;28;20433;-59
2023/05/23 04:05:13;;;;;;;14.32;8.70;;;14.70;99.90;;;;;;5047440;28;20040;-59
2023/05/23 04:07:40;;;;;;;14.57;8.07;;;14.70;99.90;;;;;;5057857;28;20037;-59
2023/05/23 04:10:06;;;;;;;13.65;8.43;;;14.70;99.90;;;;;;5048998;28;20500;-59
2023/05/23 04:12:33;;;;;;;12.70;8.30;;;14.80;99.90;;;;;;5054892;28;20123;-61
2023/05/23 04:14:58;;;;;;;13.60;8.50;;;14.70;99.90;;;;;;5052405;28;20112;-59
2023/05/23 04:17:24;;;;;;;11.40;8.13;;;14.70;99.90;;;;;;5052625;28;20743;-60
2023/05/23 04:19:50;;;;;;;11.23;8.43;;;14.70;99.90;;;;;;5059622;28;20052;-59
2023/05/23 04:22:16;;;;;;;14.13;8.40;;;14.70;99.90;;;;;;5050361;28;20028;-60
2023/05/23 04:24:42;;;;;;;15.68;7.95;;;14.70;99.90;;;;;;5049108;28;20033;-59
2023/05/23 04:27:07;;;;;;;11.73;8.73;;;14.90;99.90;;;;;;5052519;28;20028;-60
2023/05/23 04:29:34;;;;;;;12.88;8.93;;;14.80;99.90;;;;;;5047508;28;20037;-60
2023/05/23 04:32:00;;;;;;;13.95;9.15;;;14.60;99.90;;;;;;5050364;28;20443;-59
2023/05/23 04:34:26;;;;;;;13.38;9.60;;;14.60;99.90;;;;;;5055628;28;20033;-59
2023/05/23 04:36:53;;;;;;;14.23;8.68;;;14.80;99.90;;;;;;5058714;28;20417;-59
2023/05/23 04:39:19;;;;;;;16.85;9.43;;;14.80;99.90;;;;;;5047583;28;20504;-59
2023/05/23 04:41:45;;;;;;;17.95;10.25;;;15.00;99.90;;;;;;5054194;28;20093;-59
2023/05/23 04:44:11;;;;;;;15.00;9.43;;;14.90;99.90;;;;;;5052510;28;20556;-59
2023/05/23 04:46:40;;;;;;;12.85;9.32;;;14.60;99.90;;;;;;5056432;28;20571;-59
2023/05/23 04:49:07;;;;;;;18.10;10.00;;;14.80;99.90;;;;;;5050989;28;20033;-59
2023/05/23 04:51:32;;;;;;;13.55;9.63;;;14.80;99.90;;;;;;5051636;28;20040;-58
2023/05/23 04:53:58;;;;;;;16.90;9.57;;;14.80;99.90;;;;;;5055706;28;20035;-58
2023/05/23 04:56:26;;;;;;;15.75;10.57;;;14.70;99.90;;;;;;5053751;28;20046;-59
2023/05/23 04:58:52;;;;;;;15.77;10.02;;;14.70;99.90;;;;;;5047524;28;20400;-58
2023/05/23 05:01:18;;;;;;;15.20;9.77;;;14.80;99.90;;;;;;5046725;28;20163;-58
2023/05/23 05:03:44;;;;;;;19.95;10.18;;;14.70;99.90;;;;;;5053863;28;20093;-58
2023/05/23 05:06:09;;;;;;;16.05;10.35;;;14.70;99.90;;;;;;5053417;28;20027;-58
2023/05/23 05:08:35;;;;;;;14.48;9.73;;;14.70;99.90;;;;;;5054513;28;20114;-58
2023/05/23 05:11:01;;;;;;;19.45;10.10;;;14.70;99.90;;;;;;5053387;28;20469;-59
2023/05/23 05:13:27;;;;;;;14.45;9.75;;;14.60;99.90;;;;;;5045477;28;20719;-60
2023/05/23 05:15:52;;;;;;;17.60;10.05;;;14.70;99.90;;;;;;5047318;28;20033;-58
2023/05/23 05:18:18;;;;;;;18.67;10.75;;;14.70;99.90;;;;;;5041466;28;20390;-59
2023/05/23 05:20:44;;;;;;;16.85;10.25;;;14.70;99.90;;;;;;5052082;28;20028;-59
2023/05/23 05:23:10;;;;;;;15.90;10.35;;;14.80;99.90;;;;;;5051763;28;20478;-59
2023/05/23 05:25:37;;;;;;;16.60;10.18;;;14.70;99.90;;;;;;5054568;28;20097;-59
2023/05/23 05:28:04;;;;;;;15.20;8.77;;;14.80;99.90;;;;;;5053534;28;20123;-58
2023/05/23 05:30:34;;;;;;;13.90;9.07;;;14.70;99.90;;;;;;5052372;28;20040;-59
2023/05/23 05:33:03;;;;;;;16.13;9.02;;;14.70;99.90;;;;;;5049295;28;20390;-59
2023/05/23 05:35:32;;;;;;;13.90;8.65;;;14.60;99.90;;;;;;5052211;28;20127;-58
2023/05/23 05:37:58;;;;;;;15.00;8.90;;;14.70;99.90;;;;;;5054791;28;20227;-59
2023/05/23 05:40:24;;;;;;;13.25;8.65;;;14.70;99.90;;;;;;5053795;28;20052;-59
2023/05/23 05:42:50;;;;;;;11.82;8.25;;;14.70;99.90;;;;;;5048120;28;20073;-59
2023/05/23 05:45:16;;;;;;;11.32;7.30;;;14.70;99.90;;;;;;5051593;28;20040;-59
2023/05/23 05:47:41;;;;;;;13.38;7.15;;;14.80;99.90;;;;;;5051762;28;20056;-58
2023/05/23 05:50:08;;;;;;;9.40;6.38;;;14.80;99.90;;;;;;5054843;28;20033;-59
2023/05/23 05:52:37;;;;;;;9.88;6.47;;;15.00;99.90;;;;;;5051606;28;20401;-59
2023/05/23 05:55:07;;;;;;;11.13;6.10;;;15.10;75.30;;;;;;5041736;28;20475;-58
2023/05/23 05:57:33;;;;;;;11.70;6.28;;;15.10;57.20;;;;;;5047963;28;20044;-58
2023/05/23 05:59:59;;;;;;;10.07;6.18;;;15.10;62.10;;;;;;5051190;28;20036;-58
2023/05/23 06:02:25;;;;;;;10.25;6.72;;;15.10;79.80;;;;;;5048637;28;20029;-58
2023/05/23 06:04:51;;;;;;;9.63;6.53;;;15.10;84.80;;;;;;5042957;28;20035;-58
2023/05/23 06:07:16;;;;;;;10.85;6.38;;;15.10;99.90;;;;;;5057185;28;20033;-58
2023/05/23 06:09:43;;;;;;;8.85;6.80;;;15.00;99.90;;;;;;5056881;28;20027;-58
2023/05/23 06:12:09;;;;;;;10.93;6.60;;;15.00;99.90;;;;;;5054497;28;20028;-59
2023/05/23 06:14:34;;;;;;;11.77;7.15;;;15.10;99.90;;;;;;5062026;28;20036;-58
2023/05/23 06:17:01;;;;;;;12.48;7.18;;;15.10;99.90;;;;;;5055450;28;20041;-58
2023/05/23 06:19:27;;;;;;;13.43;7.22;;;14.80;99.90;;;;;;5060816;28;20044;-59
2023/05/23 06:21:52;;;;;;;11.85;7.35;;;14.80;99.90;;;;;;5058756;28;20085;-59
2023/05/23 06:24:18;;;;;;;13.20;7.35;;;14.80;99.90;;;;;;5059472;28;20065;-58
2023/05/23 06:26:43;;;;;;;12.63;6.45;;;14.80;99.90;;;;;;5066550;28;20024;-59
2023/05/23 06:29:09;;;;;;;13.38;6.93;;;14.80;99.90;;;;;;5058986;28;20444;-58
2023/05/23 06:31:35;;;;;;;13.40;7.50;;;14.90;99.90;;;;;;5065979;28;20043;-58
2023/05/23 06:34:00;;;;;;;11.65;7.43;;;15.00;42.60;;;;;;5061797;28;20024;-59
2023/05/23 06:36:26;;;;;;;10.10;7.15;;;15.20;66.10;;;;;;5059632;28;20044;-59
2023/05/23 06:38:51;;;;;;;12.07;6.93;;;15.10;25.40;;;;;;5061313;28;20488;-59
2023/05/23 06:41:17;;;;;;;11.85;7.53;;;15.00;99.90;;;;;;5060542;28;20024;-58
2023/05/23 06:43:42;;;;;;;13.77;7.13;;;15.20;99.90;;;;;;5056720;28;20033;-58
2023/05/23 06:46:08;;;;;;;15.18;7.15;;;15.10;99.90;;;;;;5059154;28;20072;-58
2023/05/23 06:48:34;;;;;;;13.23;7.10;;;15.10;99.90;;;;;;5049196;28;20040;-58
2023/05/23 06:50:59;;;;;;;12.02;7.35;;;15.00;99.90;;;;;;5060904;28;20032;-59
2023/05/23 06:53:25;;;;;;;14.13;7.30;;;14.90;99.90;;;;;;5045797;28;20032;-58
2023/05/23 06:55:50;;;;;;;13.40;7.03;;;15.10;99.90;;;;;;5056968;28;20581;-59
2023/05/23 06:58:16;;;;;;;12.95;7.40;;;15.00;99.90;;;;;;5056151;28;20699;-58
2023/05/23 07:00:42;;;;;;;12.55;7.60;;;15.10;99.90;;;;;;5062563;28;20089;-58
2023/05/23 07:03:07;;;;;;;13.40;7.90;;;15.20;99.90;;;;;;5049956;28;20028;-58
2023/05/23 07:05:35;;;;;;;13.13;7.13;;;15.20;99.90;;;;;;5060005;28;20098;-60
2023/05/23 07:08:00;;;;;;;12.10;7.90;;;15.30;99.90;;;;;;5065572;28;20053;-59
2023/05/23 07:10:26;;;;;;;14.52;7.43;;;15.40;99.90;;;;;;5061842;28;20114;-59
2023/05/23 07:12:51;;;;;;;16.50;8.77;;;15.10;99.90;;;;;;5064808;28;20060;-58
2023/05/23 07:15:17;;;;;;;18.90;8.60;;;14.80;99.90;;;;;;5060687;28;20138;-59
2023/05/23 07:17:43;;;;;;;15.57;8.15;;;14.80;99.90;;;;;;5064400;28;20052;-58
2023/05/23 07:20:09;;;;;;;14.73;8.13;;;14.90;99.90;;;;;;5056557;28;20037;-59
2023/05/23 07:22:35;;;;;;;16.35;8.20;;;15.00;99.90;;;;;;5062368;28;20120;-59
2023/05/23 07:25:00;;;;;;;18.58;8.50;;;14.80;99.90;;;;;;5062399;28;20205;-59
2023/05/23 07:27:26;;;;;;;18.98;9.02;;;14.60;99.90;;;;;;5064753;28;20048;-59
2023/05/23 07:29:52;;;;;;;19.33;9.18;;;14.70;99.90;;;;;;5065277;28;20033;-59
2023/05/23 07:32:18;;;;;;;22.63;9.25;;;14.60;99.90;;;;;;5056228;28;20515;-58
2023/05/23 07:34:43;;;;;;;17.95;9.10;;;14.70;99.90;;;;;;5062482;28;20112;-59
2023/05/23 07:37:09;;;;;;;24.70;9.75;;;14.70;99.90;;;;;;5064632;28;20025;-58
2023/05/23 07:39:34;;;;;;;22.42;9.38;;;14.60;99.90;;;;;;5065444;28;20094;-58
2023/05/23 07:42:00;;;;;;;23.80;10.05;;;14.60;99.90;;;;;;5060160;28;20035;-59
2023/05/23 07:44:25;;;;;;;22.23;9.85;;;14.40;99.90;;;;;;5063743;28;20040;-59
2023/05/23 07:46:51;;;;;;;26.58;9.77;;;14.40;99.90;;;;;;5058422;28;20098;-58
2023/05/23 07:49:16;;;;;;;20.85;9.88;;;14.40;99.90;;;;;;5044897;28;20029;-58
2023/05/23 07:51:42;;;;;;;23.85;9.80;;;14.60;99.90;;;;;;5045650;28;20036;-59
2023/05/23 07:54:08;;;;;;;23.83;10.52;;;14.40;99.90;;;;;;5060512;28;20117;-59
2023/05/23 07:56:33;;;;;;;27.63;10.43;;;14.20;99.90;;;;;;5065162;28;20866;-61
2023/05/23 07:58:59;;;;;;;20.15;9.43;;;14.40;99.90;;;;;;5064844;28;20021;-58
2023/05/23 08:01:25;;;;;;;25.00;10.85;;;14.20;99.90;;;;;;5057616;28;20040;-58
2023/05/23 08:03:51;;;;;;;27.10;10.25;;;14.20;99.90;;;;;;5049432;28;20388;-58
2023/05/23 08:06:16;;;;;;;14.35;8.68;;;14.30;99.90;;;;;;5060067;28;20507;-59
2023/05/23 08:08:42;;;;;;;19.73;7.70;;;14.40;99.90;;;;;;5054340;28;20029;-59
2023/05/23 08:11:08;;;;;;;19.00;8.23;;;14.20;99.90;;;;;;5060102;28;20682;-59
2023/05/23 08:13:34;;;;;;;18.00;8.70;;;15.00;99.90;;;;;;5061035;28;20066;-58
2023/05/23 08:16:00;;;;;;;22.13;8.80;;;14.10;99.90;;;;;;5060614;28;20124;-58
2023/05/23 08:18:25;;;;;;;21.83;7.97;;;14.20;99.90;;;;;;5063194;28;20035;-58
2023/05/23 08:20:51;;;;;;;18.85;7.60;;;14.20;99.90;;;;;;5045002;28;20037;-58
2023/05/23 08:23:17;;;;;;;18.73;7.95;;;14.30;99.90;;;;;;5044480;28;20116;-58
2023/05/23 08:25:42;;;;;;;20.90;8.13;;;13.40;99.90;;;;;;5048466;28;20032;-58
2023/05/23 08:28:08;;;;;;;21.08;7.60;;;14.20;99.90;;;;;;5063965;28;20389;-58
2023/05/23 08:30:34;;;;;;;15.40;7.13;;;14.30;86.70;;;;;;5064278;28;20325;-58
2023/05/23 08:33:03;;;;;;;16.80;7.65;;;14.40;99.90;;;;;;5046332;28;20032;-58
2023/05/23 08:35:33;;;;;;;17.05;7.50;;;14.50;84.00;;;;;;5063415;28;20035;-58
2023/05/23 08:38:00;;;;;;;17.42;7.13;;;14.60;92.70;;;;;;5059948;28;20118;-58
2023/05/23 08:40:29;;;;;;;21.60;8.05;;;14.50;98.90;;;;;;5061981;28;20147;-58
2023/05/23 08:42:55;;;;;;;19.25;8.07;;;14.00;99.90;;;;;;5056895;28;20488;-58
2023/05/23 08:45:22;;;;;;;21.52;8.38;;;14.10;99.90;;;;;;5062509;28;20067;-58
2023/05/23 08:47:51;;;;;;;18.15;7.90;;;14.10;99.90;;;;;;5063416;28;20232;-58
2023/05/23 08:50:17;;;;;;;17.13;7.50;;;14.00;99.90;;;;;;5062620;28;20028;-58
2023/05/23 08:52:49;;;;;;;13.45;7.60;;;14.10;99.90;;;;;;5063527;28;20471;-58
2023/05/23 08:55:17;;;;;;;15.00;7.13;;;14.20;99.90;;;;;;5062889;28;20048;-58
2023/05/23 08:57:43;;;;;;;15.95;7.65;;;14.10;99.90;;;;;;5063718;28;20029;-58
2023/05/23 09:00:16;;;;;;;17.88;7.45;;;;;;;;;;5059371;28;20041;-58
2023/05/23 09:02:42;;;;;;;;;;;13.40;99.90;;;;;;5047866;28;20064;-58
2023/05/23 09:05:08;;;;;;;14.15;7.60;;;14.00;91.50;;;;;;5058510;28;20639;-58
2023/05/23 09:07:35;;;;;;;14.38;7.65;;;13.90;23.40;;;;;;5051679;28;20046;-58
2023/05/23 09:10:04;;;;;;;13.77;6.05;;;13.70;99.90;;;;;;5056750;28;20068;-58
2023/05/23 09:12:32;;;;;;;14.18;6.13;;;13.80;48.70;;;;;;5057898;28;20040;-58
2023/05/23 09:14:58;;;;;;;13.30;6.45;;;13.70;80.10;;;;;;5063036;28;20028;-59
2023/05/23 09:17:23;;;;;;;12.40;6.38;;;14.00;34.30;;;;;;5062635;28;20371;-58
2023/05/23 09:19:49;;;;;;;13.55;7.03;;;13.90;32.20;;;;;;5063271;28;20111;-59
2023/05/23 09:22:15;;;;;;;12.23;6.22;;;13.70;11.20;;;;;;5059579;28;20042;-58
2023/05/23 09:24:43;;;;;;;14.65;6.55;;;13.80;1.00;;;;;;5063656;28;20060;-58
2023/05/23 09:27:08;;;;;;;14.93;6.15;;;13.90;16.20;;;;;;5063478;28;20043;-59
2023/05/23 09:29:40;;;;;;;12.27;6.25;;;13.90;1.00;;;;;;5061421;28;20033;-58
2023/05/23 09:32:20;;;;;;;17.63;6.78;;;13.70;1.00;;;;;;5056728;28;20548;-58
2023/05/23 09:34:57;;;;;;;13.77;5.85;;;13.10;1.00;;;;;;5060953;28;20455;-58
2023/05/23 09:37:39;;;;;;;14.90;6.75;;;13.70;1.00;;;;;;5055366;28;20391;-58
2023/05/23 09:40:10;;;;;;;13.93;6.28;;;14.00;1.00;;;;;;5042979;28;20052;-58
2023/05/23 09:42:41;;;;;;;15.90;6.63;;;14.10;1.00;;;;;;5057621;28;20029;-58
2023/05/23 09:45:07;;;;;;;15.13;5.90;;;14.10;1.00;;;;;;5046724;28;20621;-58
2023/05/23 09:47:32;;;;;;;12.18;6.68;;;14.10;1.00;;;;;;5055531;28;20220;-58
2023/05/23 09:49:58;;;;;;;12.32;6.13;;;14.10;93.30;;;;;;5041891;28;20037;-58
2023/05/23 09:52:24;;;;;;;10.95;6.00;;;14.30;14.30;;;;;;5049426;28;20112;-58
2023/05/23 09:54:49;;;;;;;15.35;6.30;;;14.20;99.90;;;;;;5060972;28;20388;-58
2023/05/23 09:57:16;;;;;;;11.60;6.05;;;14.30;99.90;;;;;;5066582;28;20071;-59
2023/05/23 09:59:50;;;;;;;12.13;5.90;;;14.60;99.90;;;;;;5067689;28;20032;-58
2023/05/23 10:02:20;;;;;;;13.13;6.03;;;14.80;99.90;;;;;;5057815;28;20033;-58
2023/05/23 10:04:47;;;;;;;11.88;5.75;;;14.50;99.90;;;;;;5051801;28;20040;-58
2023/05/23 10:07:16;;;;;;;12.05;6.13;;;14.50;99.90;;;;;;5066815;28;20028;-58
2023/05/23 10:09:46;;;;;;;12.18;5.75;;;14.60;99.90;;;;;;5066517;28;20146;-59
2023/05/23 10:12:38;;;;;;;10.60;5.40;;;15.10;99.90;;;;;;5065670;28;20036;-58
2023/05/23 10:15:06;;;;;;;10.02;5.43;;;15.30;99.90;;;;;;5052815;28;20081;-58
2023/05/23 10:18:01;;;;;;;11.90;5.57;;;15.50;99.90;;;;;;5066433;28;20127;-59
2023/05/23 10:20:30;;;;;;;13.07;5.40;;;15.20;99.90;;;;;;5066546;28;20040;-58
2023/05/23 10:23:01;;;;;;;12.65;6.13;;;15.10;99.90;;;;;;5047761;28;20489;-58
2023/05/23 10:25:27;;;;;;;10.25;5.22;;;14.90;99.90;;;;;;5046443;28;20039;-58
2023/05/23 10:27:58;;;;;;;13.07;5.45;;;15.00;99.90;;;;;;5057157;28;20040;-58
2023/05/23 10:30:27;;;;;;;13.63;5.15;;;15.00;99.90;;;;;;5066319;28;20115;-58
2023/05/23 10:32:55;;;;;;;12.85;5.13;;;14.90;99.90;;;;;;5048842;28;20626;-58
2023/05/23 10:35:57;;;;;;;11.38;5.15;;;14.90;99.90;;;;;;5065995;28;20025;-58
2023/05/23 10:38:49;;;;;;;10.00;4.80;;;15.00;99.90;;;;;;5062371;28;20507;-59
2023/05/23 10:41:42;;;;;;;10.35;5.05;;;15.20;99.90;;;;;;5060396;28;20083;-58
2023/05/23 10:44:27;;;;;;;16.70;4.82;;;15.30;1.00;;;;;;5065493;28;20251;-59
2023/05/23 10:46:56;;;;;;;12.02;4.47;;;15.30;1.00;;;;;;5063699;28;20032;-58
2023/05/23 10:49:43;;;;;;;11.45;4.75;;;15.50;1.00;;;;;;5052342;28;20036;-58
2023/05/23 10:52:15;;;;;;;10.52;4.78;;;15.50;1.00;;;;;;5066143;28;20060;-58
2023/05/23 10:54:45;;;;;;;14.93;5.13;;;15.50;79.10;;;;;;5064360;28;20037;-58
2023/05/23 10:57:15;;;;;;;9.10;4.68;;;15.40;1.00;;;;;;5065247;28;20025;-58
2023/05/23 10:59:41;;;;;;;13.27;4.32;;;15.30;99.90;;;;;;5062641;28;20086;-58
2023/05/23 11:02:16;;;;;;;9.32;4.10;;;15.50;99.90;;;;;;5053255;28;20403;-59
2023/05/23 11:04:43;;;;;;;9.52;3.92;;;15.80;1.00;;;;;;5063222;28;20167;-58
2023/05/23 11:07:31;;;;;;;8.65;3.97;;;15.60;1.00;;;;;;5064767;28;20074;-58
2023/05/23 11:10:12;;;;;;;12.35;4.43;;;15.30;1.00;;;;;;5047371;28;20041;-58
2023/05/23 11:12:41;;;;;;;11.90;3.60;;;15.30;99.90;;;;;;5062787;28;20158;-58
2023/05/23 11:15:15;;;;;;;10.75;4.00;;;15.30;1.00;;;;;;5065335;28;20067;-58
2023/05/23 11:17:55;;;;;;;8.98;3.30;;;15.40;99.90;;;;;;5054521;28;20082;-59
2023/05/23 11:20:26;;;;;;;13.77;3.53;;;15.10;99.90;;;;;;5064558;28;20060;-58
2023/05/23 11:23:02;;;;;;;9.85;3.50;;;15.30;99.90;;;;;;5066030;28;20040;-58
2023/05/23 11:25:54;;;;;;;12.13;3.50;;;15.40;1.00;;;;;;5065137;28;20487;-58
2023/05/23 11:28:19;;;;;;;12.02;4.05;;;15.50;99.90;;;;;;5065402;28;20028;-58
2023/05/23 11:30:48;;;;;;;12.63;3.88;;;15.60;1.00;;;;;;5064350;28;20043;-58
2023/05/23 11:33:15;;;;;;;12.40;3.63;;;15.80;99.90;;;;;;5066107;28;20067;-58
2023/05/23 11:35:46;;;;;;;14.07;4.82;;;15.70;1.00;;;;;;5056146;28;20029;-58
2023/05/23 11:38:14;;;;;;;12.15;3.78;;;15.70;99.90;;;;;;5045151;28;20128;-58
2023/05/23 11:40:41;;;;;;;12.45;4.47;;;15.50;26.10;;;;;;5057000;28;20687;-58
2023/05/23 11:43:14;;;;;;;16.27;4.18;;;15.50;99.90;;;;;;5055620;28;20033;-58
2023/05/23 11:45:40;;;;;;;14.48;4.38;;;15.50;99.90;;;;;;5065021;28;20040;-58
2023/05/23 11:48:13;;;;;;;12.77;3.60;;;15.80;1.00;;;;;;5052707;28;20064;-58
2023/05/23 11:50:51;;;;;;;14.35;3.63;;;16.20;97.00;;;;;;5045586;28;20520;-58
2023/05/23 11:53:19;;;;;;;12.10;3.80;;;16.60;1.00;;;;;;5056206;28;20404;-58
2023/05/23 11:55:57;;;;;;;13.10;4.07;;;16.20;26.40;;;;;;5063429;28;20032;-58
2023/05/23 11:58:30;;;;;;;14.25;3.90;;;16.10;1.00;;;;;;5059321;28;20036;-58
2023/05/23 12:01:06;;;;;;;12.27;4.22;;;15.90;99.90;;;;;;5061325;28;20539;-58
2023/05/23 12:03:47;;;;;;;10.48;3.20;;;16.10;1.00;;;;;;5064721;28;20036;-58
2023/05/23 12:06:20;;;;;;;11.15;4.00;;;16.20;99.90;;;;;;5063607;28;20047;-59
2023/05/23 12:08:46;;;;;;;13.90;3.50;;;16.10;1.00;;;;;;5065213;28;20039;-58
2023/05/23 12:11:12;;;;;;;13.43;4.00;;;15.90;12.30;;;;;;5059394;28;20033;-58
2023/05/23 12:13:41;;;;;;;16.30;4.10;;;15.90;1.00;;;;;;5061292;28;20044;-58
2023/05/23 12:16:06;;;;;;;12.10;4.07;;;16.30;1.00;;;;;;5062433;28;20032;-58
2023/05/23 12:18:32;;;;;;;13.23;3.67;;;16.10;1.00;;;;;;5064555;28;20036;-58
2023/05/23 12:21:06;;;;;;;12.50;3.25;;;16.00;1.00;;;;;;5064592;28;20032;-58
2023/05/23 12:23:33;;;;;;;11.68;3.78;;;16.00;93.80;;;;;;5064482;28;20028;-58
2023/05/23 12:25:59;;;;;;;12.95;3.75;;;16.40;99.90;;;;;;5063932;28;20040;-58
2023/05/23 12:28:42;;;;;;;12.68;3.92;;;16.40;99.90;;;;;;5060221;28;20052;-58
2023/05/23 12:31:20;;;;;;;12.07;3.55;;;16.30;99.90;;;;;;5059965;28;20750;-58
2023/05/23 12:33:46;;;;;;;13.48;3.65;;;16.40;99.90;;;;;;5054008;28;20051;-58
2023/05/23 12:36:23;;;;;;;15.48;3.83;;;16.20;99.90;;;;;;5063449;28;20047;-58
2023/05/23 12:38:48;;;;;;;9.02;3.50;;;16.40;99.90;;;;;;5051679;28;20052;-58
2023/05/23 12:41:16;;;;;;;13.30;3.97;;;16.30;99.90;;;;;;5058668;28;20397;-58
2023/05/23 12:43:53;;;;;;;12.32;3.97;;;16.40;99.90;;;;;;5062966;28;20809;-59